Time;durP1;ratioP1;P1;durP2;ratioP2;P2;SDS_P1;SDS_P2;PMS_P1;PMS_P2;Temp;Humidity;BMP_temperature;BMP_pressure;BME280_temperature;BME280_humidity;BME280_pressure;Samples;Min_cycle;Max_cycle;Signal;HPM_P1;HPM_P2
2023/09/13 00:01:51;;;;;;;22.52;7.07;;;;;;;18.17;100.00;100094.28;5594225;31;33910;-68
2023/09/13 00:04:56;;;;;;;24.50;6.68;;;;;;;18.19;100.00;100094.06;5594331;31;34042;-68
2023/09/13 00:07:59;;;;;;;22.77;6.70;;;;;;;18.14;100.00;100086.69;5594327;31;34607;-68
2023/09/13 00:11:04;;;;;;;23.10;6.97;;;;;;;18.07;100.00;100088.63;5594166;31;33830;-68
2023/09/13 00:14:06;;;;;;;24.30;7.28;;;;;;;18.04;100.00;100082.88;5593931;31;34612;-68
2023/09/13 00:17:09;;;;;;;27.40;7.28;;;;;;;18.00;100.00;100085.19;5593990;31;34110;-68
2023/09/13 00:20:12;;;;;;;28.42;7.62;;;;;;;17.96;100.00;100077.81;5591465;31;34198;-68
2023/09/13 00:23:15;;;;;;;24.63;7.55;;;;;;;17.92;100.00;100084.66;5590362;31;34591;-68
2023/09/13 00:26:18;;;;;;;23.83;7.00;;;;;;;17.89;100.00;100088.63;5590281;31;33876;-68
2023/09/13 00:29:23;;;;;;;27.85;7.30;;;;;;;17.87;100.00;100077.25;5590366;31;34093;-68
2023/09/13 00:32:25;;;;;;;19.92;7.28;;;;;;;17.83;100.00;100080.63;5590561;31;34561;-68
2023/09/13 00:35:29;;;;;;;18.33;7.62;;;;;;;17.80;100.00;100088.09;5589790;31;33961;-68
2023/09/13 00:38:31;;;;;;;26.35;7.12;;;;;;;17.77;100.00;100077.78;5590518;31;34585;-68
2023/09/13 00:41:35;;;;;;;21.83;7.55;;;;;;;17.73;100.00;100078.44;5590283;31;34032;-68
2023/09/13 00:44:37;;;;;;;25.20;7.72;;;;;;;17.69;100.00;100086.12;5590191;31;33999;-68
2023/09/13 00:47:42;;;;;;;22.70;7.62;;;;;;;17.66;100.00;100089.25;5590297;31;34614;-68
2023/09/13 00:50:47;;;;;;;24.23;7.60;;;;;;;17.63;100.00;100084.31;5589351;31;34080;-68
2023/09/13 00:53:58;;;;;;;21.20;7.90;;;;;;;17.59;100.00;100085.81;5590064;31;33813;-68
2023/09/13 00:57:00;;;;;;;34.25;8.65;;;;;;;17.55;100.00;100081.06;5590152;31;34630;-68
2023/09/13 01:00:08;;;;;;;24.23;8.20;;;;;;;17.50;100.00;100079.06;5590073;31;33795;-68
2023/09/13 01:03:11;;;;;;;24.80;8.27;;;;;;;17.45;100.00;100080.75;5589997;31;33776;-68
2023/09/13 01:06:14;;;;;;;22.10;7.87;;;;;;;17.44;100.00;100073.72;5589957;31;33819;-68
2023/09/13 01:09:18;;;;;;;30.62;8.65;;;;;;;17.41;100.00;100080.38;5589941;31;33846;-68
2023/09/13 01:12:22;;;;;;;24.98;8.30;;;;;;;17.39;100.00;100087.78;5590395;31;33964;-68
2023/09/13 01:15:35;;;;;;;21.42;7.72;;;;;;;17.41;100.00;100090.28;5590006;31;34009;-68
2023/09/13 01:18:50;;;;;;;20.35;7.78;;;;;;;17.35;100.00;100092.78;5589907;31;34602;-69
2023/09/13 01:22:25;;;;;;;21.77;7.60;;;;;;;17.29;100.00;100095.50;5589976;31;34006;-69
2023/09/13 01:25:53;;;;;;;25.70;8.15;;;;;;;17.23;100.00;100093.72;5590247;31;34529;-68
2023/09/13 01:28:59;;;;;;;23.42;7.60;;;;;;;17.20;100.00;100104.87;5590215;31;33866;-68
2023/09/13 01:32:03;;;;;;;26.23;7.85;;;;;;;17.20;100.00;100107.53;5589770;31;34560;-69
2023/09/13 01:35:06;;;;;;;23.75;7.90;;;;;;;17.15;100.00;100094.78;5590072;31;34584;-69
2023/09/13 01:38:09;;;;;;;19.27;7.43;;;;;;;17.12;100.00;100097.09;5589726;31;34485;-68
2023/09/13 01:41:36;;;;;;;32.03;7.65;;;;;;;17.09;100.00;100105.59;5590043;31;33994;-69
2023/09/13 01:44:41;;;;;;;28.17;7.50;;;;;;;17.07;100.00;100103.09;5589667;31;34573;-69
2023/09/13 01:47:46;;;;;;;30.73;7.97;;;;;;;17.06;100.00;100106.00;5589862;31;34565;-69
2023/09/13 01:50:49;;;;;;;23.02;7.85;;;;;;;17.04;100.00;100106.19;5589631;31;33938;-69
2023/09/13 01:53:54;;;;;;;21.12;7.28;;;;;;;17.00;100.00;100102.31;5589524;31;35061;-69
2023/09/13 01:56:57;;;;;;;23.92;6.70;;;;;;;16.99;100.00;100105.22;5588774;31;33814;-69
2023/09/13 01:59:59;;;;;;;23.75;7.03;;;;;;;17.00;100.00;100112.22;5589584;31;34888;-69
2023/09/13 02:03:02;;;;;;;21.55;6.93;;;;;;;16.94;100.00;100114.72;5588762;31;34882;-69
2023/09/13 02:06:05;;;;;;;18.12;6.82;;;;;;;16.92;100.00;100114.13;5589576;31;34791;-69
2023/09/13 02:09:08;;;;;;;18.30;6.62;;;;;;;16.89;100.00;100106.50;5589836;31;33800;-69
2023/09/13 02:12:13;;;;;;;19.73;6.85;;;;;;;16.88;100.00;100114.78;5589363;31;33861;-69
2023/09/13 02:15:15;;;;;;;16.95;6.47;;;;;;;16.82;100.00;100111.09;5589514;31;34527;-69
2023/09/13 02:18:18;;;;;;;21.80;7.00;;;;;;;16.83;100.00;100103.88;5589417;31;33768;-69
2023/09/13 02:21:21;;;;;;;20.90;6.28;;;;;;;16.83;100.00;100103.88;5589417;31;33844;-69
2023/09/13 02:24:24;;;;;;;19.40;6.40;;;;;;;16.81;100.00;100106.75;5589274;31;34099;-69
2023/09/13 02:27:27;;;;;;;17.27;6.45;;;;;;;16.85;100.00;100107.16;5589289;31;34913;-69
2023/09/13 02:30:34;;;;;;;20.65;6.47;;;;;;;16.81;100.00;100108.63;5588586;31;34032;-69
2023/09/13 02:33:37;;;;;;;29.12;6.60;;;;;;;16.76;100.00;100095.88;5589649;31;34530;-69
2023/09/13 02:36:39;;;;;;;18.27;6.18;;;;;;;16.70;100.00;100106.62;5589533;31;33785;-69
2023/09/13 02:39:43;;;;;;;19.60;6.68;;;;;;;16.69;100.00;100107.66;5589222;31;33865;-69
2023/09/13 02:42:45;;;;;;;22.67;6.35;;;;;;;16.67;100.00;100109.72;5588508;31;34007;-69
2023/09/13 02:45:48;;;;;;;24.40;5.97;;;;;;;16.64;100.00;100111.00;5589000;31;33926;-69
2023/09/13 02:48:51;;;;;;;21.48;6.22;;;;;;;16.66;100.00;100110.75;5588989;31;34037;-69
2023/09/13 02:51:55;;;;;;;26.12;6.65;;;;;;;16.63;100.00;100106.66;5588926;31;34483;-69
2023/09/13 02:54:58;;;;;;;17.55;6.57;;;;;;;16.60;100.00;100104.41;5588857;31;34142;-69
2023/09/13 02:58:02;;;;;;;20.73;6.53;;;;;;;16.58;100.00;100113.66;5588961;31;33879;-69
2023/09/13 03:01:09;;;;;;;23.40;6.82;;;;;;;16.57;100.00;100104.78;5588937;31;33907;-69
2023/09/13 03:04:13;;;;;;;15.15;5.90;;;;;;;16.52;100.00;100108.13;5588791;31;33876;-69
2023/09/13 03:07:17;;;;;;;18.65;6.70;;;;;;;16.52;100.00;100105.44;5588686;31;33865;-69
2023/09/13 03:10:20;;;;;;;20.08;6.40;;;;;;;16.53;100.00;100108.94;5588663;31;34005;-69
2023/09/13 03:13:23;;;;;;;23.40;6.68;;;;;;;16.50;100.00;100102.16;5588593;31;33868;-69
2023/09/13 03:16:26;;;;;;;21.80;6.22;;;;;;;16.53;100.00;100101.72;5588611;31;33849;-69
2023/09/13 03:19:30;;;;;;;22.25;6.12;;;;;;;16.52;100.00;100102.75;5588468;31;33850;-69
2023/09/13 03:22:32;;;;;;;20.73;6.32;;;;;;;16.46;100.00;100114.31;5588515;31;33972;-69
2023/09/13 03:25:35;;;;;;;27.05;6.62;;;;;;;16.45;100.00;100104.66;5587930;31;33986;-69
2023/09/13 03:28:38;;;;;;;19.62;6.37;;;;;;;16.42;100.00;100109.59;5588395;31;34075;-68
2023/09/13 03:31:41;;;;;;;19.45;6.55;;;;;;;16.41;100.00;100105.28;5588337;31;34526;-69
2023/09/13 03:34:45;;;;;;;23.05;6.40;;;;;;;16.39;100.00;100110.03;5588596;31;33956;-68
2023/09/13 03:37:48;;;;;;;22.02;6.53;;;;;;;16.38;100.00;100103.03;5587736;31;34961;-68
2023/09/13 03:40:51;;;;;;;24.15;6.50;;;;;;;16.34;100.00;100102.63;5588138;31;34550;-69
2023/09/13 03:43:53;;;;;;;18.80;6.60;;;;;;;16.33;100.00;100106.34;5588079;31;34106;-68
2023/09/13 03:46:57;;;;;;;19.23;6.82;;;;;;;16.26;100.00;100099.38;5587896;31;33776;-68
2023/09/13 03:50:00;;;;;;;20.70;6.87;;;;;;;16.20;100.00;100098.37;5588156;31;34546;-68
2023/09/13 03:53:03;;;;;;;21.73;6.75;;;;;;;16.17;100.00;100103.31;5587900;31;33802;-68
2023/09/13 03:56:06;;;;;;;22.45;7.40;;;;;;;16.22;100.00;100106.16;5590094;31;34019;-69
2023/09/13 03:59:09;;;;;;;23.38;7.22;;;;;;;16.21;100.00;100107.22;5591003;31;34517;-68
2023/09/13 04:02:12;;;;;;;22.13;7.32;;;;;;;16.18;100.00;100100.41;5590486;31;33904;-69
2023/09/13 04:05:15;;;;;;;19.62;6.85;;;;;;;16.16;100.00;100101.69;5590657;31;33790;-69
2023/09/13 04:08:18;;;;;;;25.52;7.62;;;;;;;16.18;100.00;100102.28;5590432;31;34489;-69
2023/09/13 04:11:21;;;;;;;22.13;7.47;;;;;;;16.17;100.00;100106.78;5590609;31;33731;-68
2023/09/13 04:14:23;;;;;;;21.02;7.90;;;;;;;16.16;100.00;100107.84;5590582;31;34202;-69
2023/09/13 04:17:26;;;;;;;20.58;7.47;;;;;;;16.12;100.00;100103.12;5590521;31;34543;-69
2023/09/13 04:20:29;;;;;;;25.17;8.52;;;;;;;16.07;100.00;100115.25;5590345;31;33794;-69
2023/09/13 04:23:32;;;;;;;22.98;7.55;;;;;;;16.06;100.00;100107.47;5590169;31;33785;-69
2023/09/13 04:26:35;;;;;;;18.50;7.50;;;;;;;16.05;100.00;100109.31;5590074;31;34434;-69
2023/09/13 04:29:40;;;;;;;21.00;8.00;;;;;;;16.02;100.00;100116.94;5590513;31;34565;-69
2023/09/13 04:32:43;;;;;;;18.85;7.87;;;;;;;16.08;100.00;100113.41;5589644;31;33895;-69
2023/09/13 04:35:46;;;;;;;19.73;7.85;;;;;;;16.05;100.00;100117.34;5590294;31;33800;-69
2023/09/13 04:38:49;;;;;;;19.05;7.57;;;;;;;16.08;100.00;100114.25;5589320;31;33973;-69
2023/09/13 04:41:52;;;;;;;22.30;8.15;;;;;;;16.17;100.00;100122.84;5590275;31;33826;-68
2023/09/13 04:44:55;;;;;;;20.95;7.87;;;;;;;16.44;100.00;100137.00;5590351;31;33807;-69
2023/09/13 04:47:58;;;;;;;21.55;7.78;;;;;;;16.45;100.00;100139.47;5590345;31;33887;-68
2023/09/13 04:51:03;;;;;;;20.67;7.50;;;;;;;16.54;100.00;100129.34;5590049;31;33951;-69
2023/09/13 04:54:06;;;;;;;21.55;8.00;;;;;;;16.58;100.00;100137.75;5589960;31;34028;-69
2023/09/13 04:57:09;;;;;;;24.98;7.57;;;;;;;16.61;100.00;100135.50;5589098;31;34134;-69
2023/09/13 05:00:14;;;;;;;22.52;7.43;;;;;;;16.68;100.00;100138.97;5589869;31;33810;-69
2023/09/13 05:03:17;;;;;;;17.12;7.32;;;;;;;16.74;100.00;100146.19;5589867;31;34539;-69
2023/09/13 05:06:20;;;;;;;22.80;8.07;;;;;;;16.75;100.00;100136.28;5589283;31;32368;-69
2023/09/13 05:09:23;;;;;;;27.20;7.90;;;;;;;16.82;100.00;100142.41;5589786;31;34604;-69
2023/09/13 05:12:26;;;;;;;24.67;7.90;;;;;;;16.93;100.00;100141.75;5589701;31;34586;-69
2023/09/13 05:15:28;;;;;;;21.05;7.70;;;;;;;16.95;100.00;100140.47;5589827;31;33836;-69
2023/09/13 05:18:32;;;;;;;20.98;7.72;;;;;;;17.02;100.00;100148.50;5589594;31;33748;-69
2023/09/13 05:21:35;;;;;;;32.80;8.00;;;;;;;17.07;100.00;100151.34;5589081;31;34174;-69
2023/09/13 05:24:38;;;;;;;46.78;8.00;;;;;;;17.27;100.00;100162.78;5589595;31;33871;-69
2023/09/13 05:27:40;;;;;;;65.87;9.27;;;;;;;17.34;100.00;100155.50;5589446;31;34353;-69
2023/09/13 05:30:48;;;;;;;26.90;7.65;;;;;;;17.37;100.00;100162.28;5589655;31;33983;-69
2023/09/13 05:33:51;;;;;;;21.37;7.32;;;;;;;17.47;100.00;100167.19;5589389;31;34004;-69
2023/09/13 05:36:55;;;;;;;30.10;7.78;;;;;;;17.59;100.00;100160.09;5589422;31;33942;-69
2023/09/13 05:39:59;;;;;;;28.33;7.32;;;;;;;17.62;100.00;100165.03;5589379;31;34633;-70
2023/09/13 05:43:03;;;;;;;27.27;9.80;;;;;;;17.72;100.00;100162.66;5589264;31;33915;-69
2023/09/13 05:46:06;;;;;;;28.67;8.07;;;;;;;17.84;100.00;100168.97;5588790;31;34455;-69
2023/09/13 05:49:09;;;;;;;24.87;7.40;;;;;;;18.01;100.00;100171.91;5588155;31;33915;-69
2023/09/13 05:52:12;;;;;;;26.95;7.65;;;;;;;18.08;100.00;100167.28;5589277;31;33888;-69
2023/09/13 05:55:15;;;;;;;24.20;7.43;;;;;;;18.00;100.00;100171.09;5589175;31;34224;-70
2023/09/13 05:58:18;;;;;;;32.75;7.20;;;;;;;18.17;100.00;100172.16;5587993;31;34049;-69
2023/09/13 06:01:22;;;;;;;22.00;7.10;;;;;;;18.31;100.00;100169.31;5588871;31;34074;-69
2023/09/13 06:04:26;;;;;;;22.73;6.80;;;;;;;18.41;100.00;100167.75;5589167;31;33912;-70
2023/09/13 06:07:29;;;;;;;28.67;7.22;;;;;;;18.55;100.00;100166.59;5589214;31;34961;-69
2023/09/13 06:10:32;;;;;;;23.75;6.55;;;;;;;18.67;100.00;100163.97;5589055;31;34089;-69
2023/09/13 06:13:34;;;;;;;30.37;6.90;;;;;;;18.78;100.00;100168.59;5589019;31;34625;-69
2023/09/13 06:16:37;;;;;;;22.25;7.03;;;;;;;18.82;100.00;100177.03;5589132;31;34530;-69
2023/09/13 06:19:40;;;;;;;19.37;6.40;;;;;;;18.94;100.00;100183.28;5586818;31;33885;-69
2023/09/13 06:22:43;;;;;;;26.30;6.53;;;;;;;19.06;100.00;100173.41;5588929;31;33560;-69
2023/09/13 06:25:48;;;;;;;22.13;6.30;;;;;;;19.28;100.00;100171.81;5588953;31;33799;-70
2023/09/13 06:28:50;;;;;;;25.05;6.60;;;;;;;19.59;100.00;100173.47;5588359;31;34278;-69
2023/09/13 06:31:55;;;;;;;22.73;6.25;;;;;;;20.20;100.00;100174.88;5588753;31;33889;-69
2023/09/13 06:35:12;;;;;;;30.75;6.30;;;;;;;21.06;100.00;100177.50;5588090;31;34541;-70
2023/09/13 06:38:18;;;;;;;22.15;6.85;;;;;;;21.69;100.00;100185.41;5588507;31;34625;-70
2023/09/13 06:41:21;;;;;;;26.65;6.57;;;;;;;22.17;100.00;100191.34;5588567;31;34576;-70
2023/09/13 06:44:24;;;;;;;24.92;6.22;;;;;;;22.70;94.48;100183.44;5588738;31;33963;-69
2023/09/13 06:47:47;;;;;;;18.45;6.18;;;;;;;23.37;84.92;100180.38;5588562;31;33922;-70
2023/09/13 06:50:51;;;;;;;22.48;5.72;;;;;;;24.17;75.08;100182.97;5588570;31;33863;-70
2023/09/13 06:54:14;;;;;;;24.33;5.80;;;;;;;24.60;73.16;100178.28;5588643;31;34658;-70
2023/09/13 06:57:19;;;;;;;21.02;6.60;;;;;;;24.98;69.74;100172.50;5588536;31;34498;-69
2023/09/13 07:00:27;;;;;;;20.60;5.93;;;;;;;25.36;66.03;100176.66;5588328;31;34155;-70
2023/09/13 07:03:45;;;;;;;17.40;5.85;;;;;;;26.09;62.78;100182.66;5588426;31;34437;-70
2023/09/13 07:06:57;;;;;;;27.27;6.97;;;;;;;25.54;63.68;100183.47;5588576;31;33883;-70
2023/09/13 07:10:02;;;;;;;31.12;6.43;;;;;;;26.12;61.18;100178.56;5587690;31;34686;-69
2023/09/13 07:13:05;;;;;;;20.35;7.07;;;;;;;26.19;55.14;100184.53;5588437;31;33903;-69
2023/09/13 07:16:08;;;;;;;24.73;7.03;;;;;;;26.06;55.95;100180.47;5588104;31;33918;-69
2023/09/13 07:19:11;;;;;;;25.15;7.18;;;;;;;26.83;53.13;100181.88;5588218;31;34614;-69
2023/09/13 07:22:14;;;;;;;25.27;7.10;;;;;;;27.11;53.20;100181.22;5588010;31;33881;-69
2023/09/13 07:25:17;;;;;;;21.23;6.32;;;;;;;27.34;51.32;100184.34;5588182;31;33961;-70
2023/09/13 07:28:20;;;;;;;21.73;5.75;;;;;;;28.07;49.16;100188.69;5588115;31;34461;-70
2023/09/13 07:31:23;;;;;;;23.58;6.07;;;;;;;29.24;47.59;100192.78;5590287;31;34701;-70
2023/09/13 07:34:26;;;;;;;22.25;5.93;;;;;;;29.95;44.96;100187.03;5591067;31;33801;-70
2023/09/13 07:37:34;;;;;;;25.95;6.20;;;;;;;29.91;43.92;100193.41;5590960;31;34519;-69
2023/09/13 07:40:40;;;;;;;23.90;5.87;;;;;;;29.56;43.91;100197.50;5590540;31;33923;-70
2023/09/13 07:43:43;;;;;;;20.60;6.35;;;;;;;29.76;44.01;100192.53;5590561;31;34159;-71
2023/09/13 07:46:45;;;;;;;21.35;6.80;;;;;;;30.48;42.03;100200.31;5590504;31;33830;-71
2023/09/13 07:49:49;;;;;;;18.12;5.80;;;;;;;31.21;41.38;100191.09;5590627;31;33844;-70
2023/09/13 07:52:51;;;;;;;23.02;6.55;;;;;;;31.98;38.78;100196.37;5589568;31;34939;-70
2023/09/13 07:56:07;;;;;;;23.58;6.05;;;;;;;32.25;38.88;100193.47;5590119;31;33882;-70
2023/09/13 07:59:14;;;;;;;32.70;6.10;;;;;;;32.55;38.68;100198.12;5590376;31;33742;-70
2023/09/13 08:02:17;;;;;;;16.27;5.25;;;;;;;33.53;37.26;100197.66;5590014;31;34978;-70
2023/09/13 08:05:20;;;;;;;23.52;5.60;;;;;;;33.76;37.14;100195.56;5590277;31;34068;-70
2023/09/13 08:08:23;;;;;;;24.73;5.47;;;;;;;33.70;37.65;100194.91;5590227;31;33969;-70
2023/09/13 08:11:26;;;;;;;17.85;5.78;;;;;;;34.39;36.62;100201.06;5590054;31;33915;-70
2023/09/13 08:14:28;;;;;;;24.45;6.12;;;;;;;33.31;37.26;100189.59;5589373;31;34486;-70
2023/09/13 08:17:34;;;;;;;26.00;5.65;;;;;;;34.41;36.65;100196.03;5589944;31;33940;-70
2023/09/13 08:20:37;;;;;;;29.42;5.72;;;;;;;34.57;34.78;100198.25;5589715;31;33965;-71
2023/09/13 08:23:39;;;;;;;21.35;5.37;;;;;;;35.42;34.00;100198.84;5589027;31;34006;-70
2023/09/13 08:26:42;;;;;;;25.40;5.93;;;;;;;34.20;36.24;100197.09;5589460;31;33900;-70
2023/09/13 08:29:45;;;;;;;35.60;6.12;;;;;;;36.21;33.37;100198.59;5588608;31;33968;-70
2023/09/13 08:32:49;;;;;;;18.87;5.90;;;;;;;36.79;31.66;100191.00;5589441;31;33990;-72
2023/09/13 08:35:52;;;;;;;21.35;5.90;;;;;;;35.09;33.12;100205.09;5589204;31;33815;-72
2023/09/13 08:38:55;;;;;;;20.35;5.75;;;;;;;35.41;33.21;100203.53;5589014;31;32247;-71
2023/09/13 08:41:58;;;;;;;19.95;5.18;;;;;;;34.88;35.15;100198.72;5588858;31;33962;-71
2023/09/13 08:45:01;;;;;;;27.87;6.12;;;;;;;36.39;32.62;100196.41;5589410;31;33875;-72
2023/09/13 08:48:07;;;;;;;28.90;5.75;;;;;;;35.99;33.59;100190.66;5589483;31;33875;-71
2023/09/13 08:51:11;;;;;;;18.62;5.57;;;;;;;36.44;33.50;100196.16;5589481;31;33975;-71
2023/09/13 08:54:16;;;;;;;21.35;6.25;;;;;;;36.45;32.33;100203.31;5589915;31;33899;-71
2023/09/13 08:57:20;;;;;;;29.05;5.90;;;;;;;34.26;35.91;100202.09;5589745;31;33932;-71
2023/09/13 09:00:28;;;;;;;23.52;6.05;;;;;;;32.27;38.76;100196.72;5588995;31;34034;-71
2023/09/13 09:03:34;;;;;;;26.50;6.28;;;;;;;31.06;41.33;100201.28;5589894;31;34230;-70
2023/09/13 09:06:38;;;;;;;24.87;6.40;;;;;;;30.34;44.57;100197.53;5589479;31;34018;-70
2023/09/13 09:09:40;;;;;;;18.15;5.80;;;;;;;29.70;45.79;100192.91;5589553;31;33795;-69
2023/09/13 09:12:48;;;;;;;20.45;5.85;;;;;;;28.94;45.53;100183.09;5589672;31;32492;-70
2023/09/13 09:15:52;;;;;;;31.37;6.85;;;;;;;28.25;48.55;100189.87;5588972;31;34840;-69
2023/09/13 09:19:00;;;;;;;22.95;6.00;;;;;;;28.34;49.58;100185.41;5589379;31;33757;-69
2023/09/13 09:22:03;;;;;;;22.77;6.53;;;;;;;27.76;49.47;100191.97;5589643;31;33981;-69
2023/09/13 09:25:11;;;;;;;25.35;6.50;;;;;;;27.87;49.30;100191.59;5589437;31;33980;-69
2023/09/13 09:28:15;;;;;;;16.90;5.57;;;;;;;27.79;51.04;100196.84;5589073;31;34479;-70
2023/09/13 09:31:19;;;;;;;23.05;5.72;;;;;;;27.87;48.58;100185.31;5587881;31;33895;-70
2023/09/13 09:34:29;;;;;;;43.80;6.65;;;;;;;27.76;49.19;100192.78;5588303;31;34175;-69
2023/09/13 09:37:34;;;;;;;16.75;5.50;;;;;;;27.73;48.87;100193.34;5589535;31;33850;-69
2023/09/13 09:40:38;;;;;;;16.87;5.70;;;;;;;27.65;48.62;100197.50;5589520;31;34588;-69
2023/09/13 09:43:43;;;;;;;16.00;5.22;;;;;;;27.54;49.98;100198.69;5589972;31;34498;-70
2023/09/13 09:46:46;;;;;;;29.95;6.28;;;;;;;27.61;49.65;100192.91;5589380;31;33907;-70
2023/09/13 09:49:49;;;;;;;33.03;6.72;;;;;;;27.77;50.00;100193.59;5589263;31;34040;-70
2023/09/13 09:52:52;;;;;;;16.37;6.35;;;;;;;27.77;52.58;100188.97;5589263;31;33826;-69
2023/09/13 09:55:56;;;;;;;22.00;5.47;;;;;;;27.74;50.05;100175.87;5589408;31;34034;-69
2023/09/13 09:58:59;;;;;;;16.58;5.97;;;;;;;27.70;49.81;100185.72;5590845;31;32167;-70
2023/09/13 10:02:03;;;;;;;23.35;6.30;;;;;;;27.94;51.34;100183.88;5591301;31;34533;-70
2023/09/13 10:05:10;;;;;;;15.63;5.80;;;;;;;27.83;50.12;100171.47;5589327;31;34144;-70
2023/09/13 10:08:14;;;;;;;30.77;6.20;;;;;;;27.84;48.80;100174.97;5588768;31;33694;-69
2023/09/13 10:11:22;;;;;;;12.23;5.15;;;;;;;27.79;48.05;100172.31;5588955;31;34948;-70
2023/09/13 10:14:29;;;;;;;16.83;5.43;;;;;;;28.02;47.82;100179.72;5589689;31;33995;-70
2023/09/13 10:17:32;;;;;;;14.02;5.70;;;;;;;28.09;47.39;100174.75;5589324;31;34776;-68
2023/09/13 10:20:36;;;;;;;20.48;5.97;;;;;;;28.20;47.83;100176.31;5591504;31;33827;-71
2023/09/13 10:23:49;;;;;;;25.02;6.12;;;;;;;28.36;47.34;100166.84;5589099;31;33943;-69
2023/09/13 10:26:52;;;;;;;19.55;5.70;;;;;;;28.56;46.34;100170.44;5588563;31;33833;-69
2023/09/13 10:29:57;;;;;;;18.70;6.70;;;;;;;28.47;46.83;100157.44;5588464;31;34519;-70
2023/09/13 10:33:03;;;;;;;18.05;6.30;;;;;;;28.75;46.79;100163.13;5589102;31;34562;-70
2023/09/13 10:36:10;;;;;;;18.50;6.37;;;;;;;29.11;46.59;100160.72;5589074;31;34715;-70
2023/09/13 10:39:23;;;;;;;20.80;5.37;;;;;;;29.53;45.44;100162.56;5589322;31;33905;-69
2023/09/13 10:42:26;;;;;;;20.12;6.05;;;;;;;29.57;46.49;100164.41;5588812;31;33987;-69
2023/09/13 10:45:29;;;;;;;18.05;5.95;;;;;;;29.71;45.54;100167.19;5588984;31;33808;-70
2023/09/13 10:48:34;;;;;;;23.10;5.95;;;;;;;30.02;44.40;100156.53;5588847;31;34657;-70
2023/09/13 10:51:40;;;;;;;13.93;5.97;;;;;;;30.75;41.98;100159.19;5589383;31;32078;-70
2023/09/13 10:54:45;;;;;;;20.80;5.90;;;;;;;32.66;39.12;100151.97;5588792;31;34024;-70
2023/09/13 10:57:49;;;;;;;16.62;5.35;;;;;;;34.51;36.27;100159.06;5588584;31;33894;-70
2023/09/13 11:00:54;;;;;;;13.95;5.68;;;;;;;36.28;32.73;100159.31;5588846;31;33752;-70
2023/09/13 11:03:57;;;;;;;16.58;5.82;;;;;;;36.24;31.91;100155.63;5587490;31;33800;-71
2023/09/13 11:07:04;;;;;;;16.85;5.40;;;;;;;37.33;32.21;100163.78;5588298;31;35030;-70
2023/09/13 11:10:15;;;;;;;16.10;5.43;;;;;;;38.06;29.32;100150.41;5588500;31;33960;-71
2023/09/13 11:13:28;;;;;;;16.20;5.28;;;;;;;40.20;27.47;100154.66;5588510;31;33811;-71
2023/09/13 11:16:31;;;;;;;14.55;5.18;;;;;;;40.10;26.76;100162.78;5587938;31;33763;-70
2023/09/13 11:19:34;;;;;;;17.17;5.30;;;;;;;41.36;25.54;100157.53;5588495;31;33849;-71
2023/09/13 11:22:38;;;;;;;12.40;4.55;;;;;;;40.89;25.78;100155.31;5587482;31;33767;-71
2023/09/13 11:26:10;;;;;;;21.27;5.20;;;;;;;40.90;26.81;100150.56;5588214;31;33931;-71
2023/09/13 11:29:26;;;;;;;12.50;4.62;;;;;;;42.58;24.49;100152.72;5588403;31;33539;-71
2023/09/13 11:32:30;;;;;;;11.57;4.50;;;;;;;42.66;23.16;100146.00;5587804;31;33907;-71
2023/09/13 11:35:34;;;;;;;18.83;5.00;;;;;;;42.76;22.82;100145.28;5588230;31;34128;-71
2023/09/13 11:38:37;;;;;;;14.40;4.85;;;;;;;42.22;23.40;100131.34;5587468;31;34232;-72
2023/09/13 11:41:39;;;;;;;16.98;4.85;;;;;;;43.12;22.50;100125.97;5587801;31;34500;-72
2023/09/13 11:45:00;;;;;;;10.75;4.43;;;;;;;41.69;24.12;100126.06;5588292;31;34348;-71
2023/09/13 11:48:09;;;;;;;9.57;4.72;;;;;;;41.09;24.11;100125.41;5587784;31;33903;-71
2023/09/13 11:51:15;;;;;;;11.43;4.90;;;;;;;42.28;23.35;100119.47;5587841;31;33812;-71
2023/09/13 11:54:26;;;;;;;9.63;4.45;;;;;;;43.00;21.95;100126.25;5587418;31;34512;-72
2023/09/13 11:57:48;;;;;;;13.52;4.30;;;;;;;43.96;21.84;100122.56;5586737;31;33815;-72
2023/09/13 12:01:00;;;;;;;7.07;4.40;;;;;;;43.20;21.71;100121.97;5587586;31;34425;-70
2023/09/13 12:04:07;;;;;;;7.50;4.05;;;;;;;44.20;20.38;100117.38;5587691;31;34607;-72
2023/09/13 12:07:13;;;;;;;12.15;4.32;;;;;;;43.79;21.23;100128.13;5587584;31;34514;-72
2023/09/13 12:10:37;;;;;;;10.82;4.32;;;;;;;44.47;19.64;100122.16;5586633;31;34119;-71
2023/09/13 12:13:44;;;;;;;10.45;4.03;;;;;;;43.24;20.01;100114.41;5587314;31;33776;-70
2023/09/13 12:17:08;;;;;;;9.75;4.10;;;;;;;43.73;19.89;100113.75;5589773;31;33914;-70
2023/09/13 12:20:11;;;;;;;11.27;4.05;;;;;;;43.94;19.99;100122.19;5590801;31;34040;-72
2023/09/13 12:23:17;;;;;;;12.55;4.30;;;;;;;42.49;21.40;100108.47;5590253;31;33783;-72
2023/09/13 12:26:21;;;;;;;9.75;3.90;;;;;;;44.47;19.62;100107.34;5590087;31;33828;-71
2023/09/13 12:29:24;;;;;;;12.70;3.70;;;;;;;43.87;19.52;100104.59;5590134;31;32202;-72
2023/09/13 12:32:28;;;;;;;7.75;3.70;;;;;;;44.29;19.31;100090.63;5590186;31;33867;-72
2023/09/13 12:35:31;;;;;;;6.53;3.90;;;;;;;42.80;21.30;100093.09;5590060;31;33847;-71
2023/09/13 12:38:43;;;;;;;9.02;3.60;;;;;;;43.71;19.73;100091.81;5590239;31;34388;-71
2023/09/13 12:41:47;;;;;;;4.57;3.10;;;;;;;45.25;18.60;100079.09;5590059;31;35154;-72
2023/09/13 12:44:50;;;;;;;7.70;3.45;;;;;;;44.75;18.48;100075.72;5589840;31;33904;-71
2023/09/13 12:47:55;;;;;;;10.77;3.72;;;;;;;45.69;18.06;100079.22;5590047;31;33981;-72
2023/09/13 12:51:01;;;;;;;11.82;3.70;;;;;;;42.85;19.36;100070.38;5589997;31;34614;-72
2023/09/13 12:54:05;;;;;;;6.12;3.60;;;;;;;44.26;19.43;100066.25;5589405;31;34382;-71
2023/09/13 12:57:10;;;;;;;10.65;3.67;;;;;;;44.80;18.12;100058.50;5589835;31;33909;-71
2023/09/13 13:00:13;;;;;;;9.90;3.60;;;;;;;45.21;17.90;100059.50;5589663;31;35330;-71
2023/09/13 13:03:17;;;;;;;8.35;3.62;;;;;;;45.59;17.46;100070.87;5589422;31;33801;-71
2023/09/13 13:06:20;;;;;;;13.32;4.15;;;;;;;44.20;17.71;100059.44;5590047;31;34767;-70
2023/09/13 13:09:23;;;;;;;7.55;3.60;;;;;;;44.31;17.77;100059.44;5589528;31;34034;-70
2023/09/13 13:12:27;;;;;;;8.02;3.70;;;;;;;44.86;17.55;100051.28;5589236;31;34026;-71
2023/09/13 13:15:32;;;;;;;9.80;3.97;;;;;;;45.53;17.81;100052.91;5589805;31;33896;-71
2023/09/13 13:18:35;;;;;;;14.32;4.30;;;;;;;44.96;18.69;100047.63;5588802;31;34039;-70
2023/09/13 13:21:53;;;;;;;12.40;3.80;;;;;;;45.12;18.26;100059.19;5589470;31;34505;-70
2023/09/13 13:24:59;;;;;;;10.20;3.78;;;;;;;45.87;17.30;100058.66;5589471;31;33871;-71
2023/09/13 13:28:01;;;;;;;8.32;3.92;;;;;;;43.68;19.45;100042.28;5587798;31;34460;-71
2023/09/13 13:31:05;;;;;;;17.12;4.43;;;;;;;43.48;18.79;100038.28;5589163;31;33822;-71
2023/09/13 13:34:07;;;;;;;21.25;4.15;;;;;;;40.84;21.06;100024.88;5589038;31;33735;-70
2023/09/13 13:37:10;;;;;;;17.85;4.50;;;;;;;41.29;20.97;100023.00;5589378;31;33837;-70
2023/09/13 13:40:13;;;;;;;32.60;4.87;;;;;;;44.79;18.36;100031.69;5589268;31;34602;-70
2023/09/13 13:43:16;;;;;;;5.47;3.35;;;;;;;44.84;18.48;100020.88;5588838;31;33975;-70
2023/09/13 13:46:19;;;;;;;17.17;4.32;;;;;;;46.36;16.29;100029.31;5588913;31;34717;-70
2023/09/13 13:49:22;;;;;;;40.47;4.70;;;;;;;47.10;15.46;100029.22;5588928;31;33805;-70
2023/09/13 13:52:25;;;;;;;14.30;4.10;;;;;;;44.99;18.08;100022.41;5589279;31;34517;-70
2023/09/13 13:55:28;;;;;;;14.43;3.62;;;;;;;43.58;18.88;100006.75;5589172;31;33921;-71
2023/09/13 13:58:31;;;;;;;5.90;3.37;;;;;;;44.23;18.18;100015.88;5588577;31;34009;-69
2023/09/13 14:01:34;;;;;;;11.10;3.62;;;;;;;43.04;18.42;100016.22;5588942;31;34528;-69
2023/09/13 14:04:38;;;;;;;11.63;3.80;;;;;;;44.43;17.72;100008.66;5589153;31;34547;-70
2023/09/13 14:07:40;;;;;;;11.90;4.20;;;;;;;43.51;18.89;100008.78;5588910;31;34572;-69